sensor_id;sensor_type;location;lat;lon;timestamp;temperature;humidity
1766;DHT22;880;52.452;8.656;2024-02-23T00:00:04;9.60;99.90
1766;DHT22;880;52.452;8.656;2024-02-23T00:02:32;9.60;99.90
1766;DHT22;880;52.452;8.656;2024-02-23T00:04:59;9.50;99.90
1766;DHT22;880;52.452;8.656;2024-02-23T00:07:26;9.50;99.90
1766;DHT22;880;52.452;8.656;2024-02-23T00:09:53;9.50;99.90
1766;DHT22;880;52.452;8.656;2024-02-23T00:12:20;9.50;99.90
1766;DHT22;880;52.452;8.656;2024-02-23T00:14:47;9.50;99.90
1766;DHT22;880;52.452;8.656;2024-02-23T00:17:14;9.50;99.90
1766;DHT22;880;52.452;8.656;2024-02-23T00:19:45;9.50;99.90
1766;DHT22;880;52.452;8.656;2024-02-23T00:22:12;9.40;99.90
1766;DHT22;880;52.452;8.656;2024-02-23T00:24:39;9.40;99.90
1766;DHT22;880;52.452;8.656;2024-02-23T00:27:07;9.40;99.90
1766;DHT22;880;52.452;8.656;2024-02-23T00:29:34;9.30;99.90
1766;DHT22;880;52.452;8.656;2024-02-23T00:32:03;9.20;99.90
1766;DHT22;880;52.452;8.656;2024-02-23T00:34:30;9.10;99.90
1766;DHT22;880;52.452;8.656;2024-02-23T00:36:58;8.90;99.90
1766;DHT22;880;52.452;8.656;2024-02-23T00:39:25;8.80;99.90
1766;DHT22;880;52.452;8.656;2024-02-23T00:41:52;8.70;99.90
1766;DHT22;880;52.452;8.656;2024-02-23T00:44:19;8.60;99.90
1766;DHT22;880;52.452;8.656;2024-02-23T00:46:46;8.60;99.90
1766;DHT22;880;52.452;8.656;2024-02-23T00:49:13;8.50;99.90
1766;DHT22;880;52.452;8.656;2024-02-23T00:51:40;8.20;99.90
1766;DHT22;880;52.452;8.656;2024-02-23T00:54:08;7.90;99.90
1766;DHT22;880;52.452;8.656;2024-02-23T00:56:35;7.60;99.90
1766;DHT22;880;52.452;8.656;2024-02-23T00:59:16;7.40;99.90
1766;DHT22;880;52.452;8.656;2024-02-23T01:01:43;7.10;99.90
1766;DHT22;880;52.452;8.656;2024-02-23T01:04:10;7.00;99.90
1766;DHT22;880;52.452;8.656;2024-02-23T01:06:37;6.90;99.90
1766;DHT22;880;52.452;8.656;2024-02-23T01:09:05;6.80;99.90
1766;DHT22;880;52.452;8.656;2024-02-23T01:11:32;6.70;99.90
1766;DHT22;880;52.452;8.656;2024-02-23T01:13:59;6.70;99.90
1766;DHT22;880;52.452;8.656;2024-02-23T01:16:26;6.60;99.90
1766;DHT22;880;52.452;8.656;2024-02-23T01:18:53;6.50;99.90
1766;DHT22;880;52.452;8.656;2024-02-23T01:21:21;6.50;99.90
1766;DHT22;880;52.452;8.656;2024-02-23T01:23:47;6.40;99.90
1766;DHT22;880;52.452;8.656;2024-02-23T01:26:15;6.30;99.90
1766;DHT22;880;52.452;8.656;2024-02-23T01:28:42;6.30;99.90
1766;DHT22;880;52.452;8.656;2024-02-23T01:31:09;6.30;99.90
1766;DHT22;880;52.452;8.656;2024-02-23T01:33:38;6.20;99.90
1766;DHT22;880;52.452;8.656;2024-02-23T01:36:06;6.20;99.90
1766;DHT22;880;52.452;8.656;2024-02-23T01:38:34;6.20;99.90
1766;DHT22;880;52.452;8.656;2024-02-23T01:41:01;6.10;99.90
1766;DHT22;880;52.452;8.656;2024-02-23T01:43:29;6.00;99.90
1766;DHT22;880;52.452;8.656;2024-02-23T01:45:56;6.10;99.90
1766;DHT22;880;52.452;8.656;2024-02-23T01:48:23;6.00;99.90
1766;DHT22;880;52.452;8.656;2024-02-23T01:50:50;6.00;99.90
1766;DHT22;880;52.452;8.656;2024-02-23T01:53:18;6.00;99.90
1766;DHT22;880;52.452;8.656;2024-02-23T01:55:46;6.00;99.90
1766;DHT22;880;52.452;8.656;2024-02-23T01:58:14;6.00;99.90
1766;DHT22;880;52.452;8.656;2024-02-23T02:00:43;6.00;99.90
1766;DHT22;880;52.452;8.656;2024-02-23T02:03:10;6.00;99.90
1766;DHT22;880;52.452;8.656;2024-02-23T02:05:39;5.90;99.90
1766;DHT22;880;52.452;8.656;2024-02-23T02:08:06;6.00;99.90
1766;DHT22;880;52.452;8.656;2024-02-23T02:10:34;5.90;99.90
1766;DHT22;880;52.452;8.656;2024-02-23T02:13:07;5.90;99.90
1766;DHT22;880;52.452;8.656;2024-02-23T02:15:34;6.00;99.90
1766;DHT22;880;52.452;8.656;2024-02-23T02:18:01;5.90;99.90
1766;DHT22;880;52.452;8.656;2024-02-23T02:20:32;5.90;99.90
1766;DHT22;880;52.452;8.656;2024-02-23T02:23:00;5.90;99.90
1766;DHT22;880;52.452;8.656;2024-02-23T02:25:27;6.00;99.90
1766;DHT22;880;52.452;8.656;2024-02-23T02:27:54;6.00;99.90
1766;DHT22;880;52.452;8.656;2024-02-23T02:30:21;5.90;99.90
1766;DHT22;880;52.452;8.656;2024-02-23T02:32:49;5.90;99.90
1766;DHT22;880;52.452;8.656;2024-02-23T02:35:16;5.90;99.90
1766;DHT22;880;52.452;8.656;2024-02-23T02:37:43;6.00;99.90
1766;DHT22;880;52.452;8.656;2024-02-23T02:40:10;5.90;99.90
1766;DHT22;880;52.452;8.656;2024-02-23T02:42:37;6.00;99.90
1766;DHT22;880;52.452;8.656;2024-02-23T02:45:04;6.00;99.90
1766;DHT22;880;52.452;8.656;2024-02-23T02:47:32;5.90;99.90
1766;DHT22;880;52.452;8.656;2024-02-23T02:49:59;6.00;99.90
1766;DHT22;880;52.452;8.656;2024-02-23T02:52:26;6.00;99.90
1766;DHT22;880;52.452;8.656;2024-02-23T02:54:53;6.00;99.90
1766;DHT22;880;52.452;8.656;2024-02-23T02:57:20;6.00;99.90
1766;DHT22;880;52.452;8.656;2024-02-23T02:59:47;6.00;99.90
1766;DHT22;880;52.452;8.656;2024-02-23T03:02:16;6.00;99.90
1766;DHT22;880;52.452;8.656;2024-02-23T03:04:48;6.00;99.90
1766;DHT22;880;52.452;8.656;2024-02-23T03:07:18;6.10;99.90
1766;DHT22;880;52.452;8.656;2024-02-23T03:09:45;6.10;99.90
1766;DHT22;880;52.452;8.656;2024-02-23T03:12:13;6.10;99.90
1766;DHT22;880;52.452;8.656;2024-02-23T03:14:40;6.10;99.90
1766;DHT22;880;52.452;8.656;2024-02-23T03:17:08;6.10;99.90
1766;DHT22;880;52.452;8.656;2024-02-23T03:19:37;6.00;99.90
1766;DHT22;880;52.452;8.656;2024-02-23T03:22:04;6.00;99.90
1766;DHT22;880;52.452;8.656;2024-02-23T03:24:31;6.00;99.90
1766;DHT22;880;52.452;8.656;2024-02-23T03:27:01;6.00;99.90
1766;DHT22;880;52.452;8.656;2024-02-23T03:29:29;6.00;99.90
1766;DHT22;880;52.452;8.656;2024-02-23T03:31:56;6.00;99.90
1766;DHT22;880;52.452;8.656;2024-02-23T03:34:24;6.10;99.90
1766;DHT22;880;52.452;8.656;2024-02-23T03:36:51;6.10;99.90
1766;DHT22;880;52.452;8.656;2024-02-23T03:39:18;6.10;99.90
1766;DHT22;880;52.452;8.656;2024-02-23T03:41:45;6.10;99.90
1766;DHT22;880;52.452;8.656;2024-02-23T03:44:12;6.10;99.90
1766;DHT22;880;52.452;8.656;2024-02-23T03:46:39;6.20;99.90
1766;DHT22;880;52.452;8.656;2024-02-23T03:49:06;6.20;99.90
1766;DHT22;880;52.452;8.656;2024-02-23T03:51:33;6.20;99.90
1766;DHT22;880;52.452;8.656;2024-02-23T03:54:03;6.30;99.90
1766;DHT22;880;52.452;8.656;2024-02-23T03:56:30;6.20;99.90
1766;DHT22;880;52.452;8.656;2024-02-23T03:59:04;6.30;99.90
1766;DHT22;880;52.452;8.656;2024-02-23T04:01:31;6.30;99.90
1766;DHT22;880;52.452;8.656;2024-02-23T04:04:00;6.30;99.90
1766;DHT22;880;52.452;8.656;2024-02-23T04:06:28;6.30;99.90
1766;DHT22;880;52.452;8.656;2024-02-23T04:08:55;6.40;99.90
1766;DHT22;880;52.452;8.656;2024-02-23T04:11:22;6.40;99.90
1766;DHT22;880;52.452;8.656;2024-02-23T04:13:49;6.40;99.90
1766;DHT22;880;52.452;8.656;2024-02-23T04:16:22;6.30;99.90
1766;DHT22;880;52.452;8.656;2024-02-23T04:18:50;6.40;99.90
1766;DHT22;880;52.452;8.656;2024-02-23T04:21:18;6.40;99.90
1766;DHT22;880;52.452;8.656;2024-02-23T04:23:45;6.40;99.90
1766;DHT22;880;52.452;8.656;2024-02-23T04:26:12;6.40;99.90
1766;DHT22;880;52.452;8.656;2024-02-23T04:28:40;6.40;99.90
1766;DHT22;880;52.452;8.656;2024-02-23T04:31:08;6.40;99.90
1766;DHT22;880;52.452;8.656;2024-02-23T04:33:37;6.40;99.90
1766;DHT22;880;52.452;8.656;2024-02-23T04:36:05;6.30;99.90
1766;DHT22;880;52.452;8.656;2024-02-23T04:38:33;6.30;99.90
1766;DHT22;880;52.452;8.656;2024-02-23T04:41:04;6.30;99.90
1766;DHT22;880;52.452;8.656;2024-02-23T04:43:32;6.30;99.90
1766;DHT22;880;52.452;8.656;2024-02-23T04:45:59;6.30;99.90
1766;DHT22;880;52.452;8.656;2024-02-23T04:48:26;6.30;99.90
1766;DHT22;880;52.452;8.656;2024-02-23T04:50:53;6.30;99.90
1766;DHT22;880;52.452;8.656;2024-02-23T04:53:20;6.30;99.90
1766;DHT22;880;52.452;8.656;2024-02-23T04:55:47;6.30;99.90
1766;DHT22;880;52.452;8.656;2024-02-23T04:58:14;6.30;99.90
1766;DHT22;880;52.452;8.656;2024-02-23T05:00:42;6.30;99.90
1766;DHT22;880;52.452;8.656;2024-02-23T05:03:09;6.30;99.90
1766;DHT22;880;52.452;8.656;2024-02-23T05:05:38;6.30;99.90
1766;DHT22;880;52.452;8.656;2024-02-23T05:08:06;6.30;99.90
1766;DHT22;880;52.452;8.656;2024-02-23T05:10:34;6.20;99.90
1766;DHT22;880;52.452;8.656;2024-02-23T05:13:01;6.20;99.90
1766;DHT22;880;52.452;8.656;2024-02-23T05:15:28;6.20;99.90
1766;DHT22;880;52.452;8.656;2024-02-23T05:17:55;6.10;99.90
1766;DHT22;880;52.452;8.656;2024-02-23T05:20:22;6.20;99.90
1766;DHT22;880;52.452;8.656;2024-02-23T05:22:49;6.20;99.90
1766;DHT22;880;52.452;8.656;2024-02-23T05:25:16;6.20;99.90
1766;DHT22;880;52.452;8.656;2024-02-23T05:27:43;6.20;99.90
1766;DHT22;880;52.452;8.656;2024-02-23T05:30:11;6.20;99.90
1766;DHT22;880;52.452;8.656;2024-02-23T05:32:39;6.20;99.90
1766;DHT22;880;52.452;8.656;2024-02-23T05:35:06;6.30;99.90
1766;DHT22;880;52.452;8.656;2024-02-23T05:37:34;6.30;99.90
1766;DHT22;880;52.452;8.656;2024-02-23T05:40:02;6.30;99.90
1766;DHT22;880;52.452;8.656;2024-02-23T05:42:33;6.30;99.90
1766;DHT22;880;52.452;8.656;2024-02-23T05:45:06;6.30;99.90
1766;DHT22;880;52.452;8.656;2024-02-23T05:47:36;6.30;99.90
1766;DHT22;880;52.452;8.656;2024-02-23T05:50:05;6.20;99.90
1766;DHT22;880;52.452;8.656;2024-02-23T05:52:33;6.30;99.90
1766;DHT22;880;52.452;8.656;2024-02-23T05:55:00;6.20;99.90
1766;DHT22;880;52.452;8.656;2024-02-23T05:57:27;6.20;99.90
1766;DHT22;880;52.452;8.656;2024-02-23T05:59:55;6.20;99.90
1766;DHT22;880;52.452;8.656;2024-02-23T06:02:23;6.20;99.90
1766;DHT22;880;52.452;8.656;2024-02-23T06:04:50;6.10;99.90
1766;DHT22;880;52.452;8.656;2024-02-23T06:07:17;6.10;99.90
1766;DHT22;880;52.452;8.656;2024-02-23T06:09:45;6.10;99.90
1766;DHT22;880;52.452;8.656;2024-02-23T06:12:12;6.10;99.90
1766;DHT22;880;52.452;8.656;2024-02-23T06:14:39;6.10;99.90
1766;DHT22;880;52.452;8.656;2024-02-23T06:17:06;6.10;99.90
1766;DHT22;880;52.452;8.656;2024-02-23T06:19:35;6.10;99.90
1766;DHT22;880;52.452;8.656;2024-02-23T06:22:02;6.20;99.90
1766;DHT22;880;52.452;8.656;2024-02-23T06:24:29;6.10;99.90
1766;DHT22;880;52.452;8.656;2024-02-23T06:26:56;6.20;99.90
1766;DHT22;880;52.452;8.656;2024-02-23T06:29:24;6.20;99.90
1766;DHT22;880;52.452;8.656;2024-02-23T06:31:51;6.20;99.90
1766;DHT22;880;52.452;8.656;2024-02-23T06:34:18;6.20;99.90
1766;DHT22;880;52.452;8.656;2024-02-23T06:36:45;6.30;99.90
1766;DHT22;880;52.452;8.656;2024-02-23T06:39:13;6.30;99.90
1766;DHT22;880;52.452;8.656;2024-02-23T06:41:40;6.30;99.90
1766;DHT22;880;52.452;8.656;2024-02-23T06:44:07;6.30;99.90
1766;DHT22;880;52.452;8.656;2024-02-23T06:46:34;6.30;99.90
1766;DHT22;880;52.452;8.656;2024-02-23T06:49:01;6.30;99.90
1766;DHT22;880;52.452;8.656;2024-02-23T06:51:28;6.20;99.90
1766;DHT22;880;52.452;8.656;2024-02-23T06:53:55;6.10;99.90
1766;DHT22;880;52.452;8.656;2024-02-23T06:56:23;6.10;99.90
1766;DHT22;880;52.452;8.656;2024-02-23T06:58:50;6.20;99.90
1766;DHT22;880;52.452;8.656;2024-02-23T07:01:20;6.10;99.90
1766;DHT22;880;52.452;8.656;2024-02-23T07:03:47;6.10;99.90
1766;DHT22;880;52.452;8.656;2024-02-23T07:06:17;6.20;99.90
1766;DHT22;880;52.452;8.656;2024-02-23T07:08:45;6.10;99.90
1766;DHT22;880;52.452;8.656;2024-02-23T07:11:12;6.20;99.90
1766;DHT22;880;52.452;8.656;2024-02-23T07:13:43;6.20;99.90
1766;DHT22;880;52.452;8.656;2024-02-23T07:16:10;6.20;99.90
1766;DHT22;880;52.452;8.656;2024-02-23T07:18:37;6.30;99.90
1766;DHT22;880;52.452;8.656;2024-02-23T07:21:04;6.30;99.90
1766;DHT22;880;52.452;8.656;2024-02-23T07:23:32;6.30;99.90
1766;DHT22;880;52.452;8.656;2024-02-23T07:25:59;6.30;99.90
1766;DHT22;880;52.452;8.656;2024-02-23T07:28:26;6.30;99.90
1766;DHT22;880;52.452;8.656;2024-02-23T07:30:53;6.40;99.90
1766;DHT22;880;52.452;8.656;2024-02-23T07:33:20;6.40;99.90
1766;DHT22;880;52.452;8.656;2024-02-23T07:35:48;6.40;99.90
1766;DHT22;880;52.452;8.656;2024-02-23T07:38:15;6.40;99.90
1766;DHT22;880;52.452;8.656;2024-02-23T07:40:42;6.40;99.90
1766;DHT22;880;52.452;8.656;2024-02-23T07:43:09;6.50;99.90
1766;DHT22;880;52.452;8.656;2024-02-23T07:45:37;6.50;99.90
1766;DHT22;880;52.452;8.656;2024-02-23T07:48:05;6.60;99.90
1766;DHT22;880;52.452;8.656;2024-02-23T07:50:32;6.60;99.90
1766;DHT22;880;52.452;8.656;2024-02-23T07:52:59;6.60;99.90
1766;DHT22;880;52.452;8.656;2024-02-23T07:55:26;6.70;99.90
1766;DHT22;880;52.452;8.656;2024-02-23T07:57:53;6.80;99.90
1766;DHT22;880;52.452;8.656;2024-02-23T08:00:27;6.80;99.90
1766;DHT22;880;52.452;8.656;2024-02-23T08:02:56;6.80;99.90
1766;DHT22;880;52.452;8.656;2024-02-23T08:05:26;6.90;99.90
1766;DHT22;880;52.452;8.656;2024-02-23T08:07:53;7.00;99.90
1766;DHT22;880;52.452;8.656;2024-02-23T08:10:21;7.00;99.90
1766;DHT22;880;52.452;8.656;2024-02-23T08:12:48;7.10;99.90
1766;DHT22;880;52.452;8.656;2024-02-23T08:15:15;7.20;99.90
1766;DHT22;880;52.452;8.656;2024-02-23T08:17:42;7.30;99.90
1766;DHT22;880;52.452;8.656;2024-02-23T08:20:10;7.40;99.90
1766;DHT22;880;52.452;8.656;2024-02-23T08:22:37;7.40;99.90
1766;DHT22;880;52.452;8.656;2024-02-23T08:25:04;7.50;99.90
1766;DHT22;880;52.452;8.656;2024-02-23T08:27:31;7.50;99.90
1766;DHT22;880;52.452;8.656;2024-02-23T08:29:58;7.60;99.90
1766;DHT22;880;52.452;8.656;2024-02-23T08:32:26;7.70;99.90
1766;DHT22;880;52.452;8.656;2024-02-23T08:34:53;7.80;99.90
1766;DHT22;880;52.452;8.656;2024-02-23T08:37:26;7.80;99.90
1766;DHT22;880;52.452;8.656;2024-02-23T08:39:53;7.90;99.90
1766;DHT22;880;52.452;8.656;2024-02-23T08:42:20;7.90;99.90
1766;DHT22;880;52.452;8.656;2024-02-23T08:44:48;7.90;99.90
1766;DHT22;880;52.452;8.656;2024-02-23T08:47:15;8.00;99.90
1766;DHT22;880;52.452;8.656;2024-02-23T08:49:42;7.90;99.90
1766;DHT22;880;52.452;8.656;2024-02-23T08:52:09;7.90;99.90
1766;DHT22;880;52.452;8.656;2024-02-23T08:54:36;7.90;99.90
1766;DHT22;880;52.452;8.656;2024-02-23T08:57:04;7.90;99.90
1766;DHT22;880;52.452;8.656;2024-02-23T08:59:31;7.80;99.90
1766;DHT22;880;52.452;8.656;2024-02-23T09:01:58;7.80;99.90
1766;DHT22;880;52.452;8.656;2024-02-23T09:04:25;7.70;99.90
1766;DHT22;880;52.452;8.656;2024-02-23T09:06:52;7.70;99.90
1766;DHT22;880;52.452;8.656;2024-02-23T09:09:20;7.70;99.90
1766;DHT22;880;52.452;8.656;2024-02-23T09:11:47;7.70;99.90
1766;DHT22;880;52.452;8.656;2024-02-23T09:14:15;7.80;99.90
1766;DHT22;880;52.452;8.656;2024-02-23T09:16:43;7.80;99.90
1766;DHT22;880;52.452;8.656;2024-02-23T09:19:09;7.90;99.90
1766;DHT22;880;52.452;8.656;2024-02-23T09:21:36;7.90;99.90
1766;DHT22;880;52.452;8.656;2024-02-23T09:24:05;8.00;99.90
1766;DHT22;880;52.452;8.656;2024-02-23T09:26:32;8.00;99.90
1766;DHT22;880;52.452;8.656;2024-02-23T09:28:59;8.00;99.90
1766;DHT22;880;52.452;8.656;2024-02-23T09:31:26;8.00;99.90
1766;DHT22;880;52.452;8.656;2024-02-23T09:33:55;7.80;99.90
1766;DHT22;880;52.452;8.656;2024-02-23T09:36:22;7.80;99.90
1766;DHT22;880;52.452;8.656;2024-02-23T09:38:50;7.80;99.90
1766;DHT22;880;52.452;8.656;2024-02-23T09:41:21;7.70;99.90
1766;DHT22;880;52.452;8.656;2024-02-23T09:43:50;7.70;99.90
1766;DHT22;880;52.452;8.656;2024-02-23T09:46:18;7.70;99.90
1766;DHT22;880;52.452;8.656;2024-02-23T09:48:45;7.70;99.90
1766;DHT22;880;52.452;8.656;2024-02-23T09:51:15;7.70;99.90
1766;DHT22;880;52.452;8.656;2024-02-23T09:53:42;7.70;99.90
1766;DHT22;880;52.452;8.656;2024-02-23T09:56:10;7.70;99.90
1766;DHT22;880;52.452;8.656;2024-02-23T09:58:37;7.70;99.90
1766;DHT22;880;52.452;8.656;2024-02-23T10:01:05;7.70;99.90
1766;DHT22;880;52.452;8.656;2024-02-23T10:03:33;7.70;99.90
1766;DHT22;880;52.452;8.656;2024-02-23T10:06:00;7.80;99.90
1766;DHT22;880;52.452;8.656;2024-02-23T10:08:30;7.80;99.90
1766;DHT22;880;52.452;8.656;2024-02-23T10:10:57;7.90;99.90
1766;DHT22;880;52.452;8.656;2024-02-23T10:13:24;7.90;99.90
1766;DHT22;880;52.452;8.656;2024-02-23T10:15:51;7.90;99.90
1766;DHT22;880;52.452;8.656;2024-02-23T10:18:39;7.80;99.90
1766;DHT22;880;52.452;8.656;2024-02-23T10:21:06;7.80;99.90
1766;DHT22;880;52.452;8.656;2024-02-23T10:23:33;7.90;99.90
1766;DHT22;880;52.452;8.656;2024-02-23T10:26:07;8.00;99.90
1766;DHT22;880;52.452;8.656;2024-02-23T10:28:36;8.00;99.90
1766;DHT22;880;52.452;8.656;2024-02-23T10:31:08;8.00;99.90
1766;DHT22;880;52.452;8.656;2024-02-23T10:33:39;8.00;99.90
1766;DHT22;880;52.452;8.656;2024-02-23T10:36:07;8.10;99.90
1766;DHT22;880;52.452;8.656;2024-02-23T10:38:38;8.10;99.90
1766;DHT22;880;52.452;8.656;2024-02-23T10:41:09;8.20;99.90
1766;DHT22;880;52.452;8.656;2024-02-23T10:43:45;8.30;99.90
1766;DHT22;880;52.452;8.656;2024-02-23T10:46:14;8.30;99.90
1766;DHT22;880;52.452;8.656;2024-02-23T10:48:43;8.30;99.90
1766;DHT22;880;52.452;8.656;2024-02-23T10:51:13;8.30;99.90
1766;DHT22;880;52.452;8.656;2024-02-23T10:53:46;8.30;99.90
1766;DHT22;880;52.452;8.656;2024-02-23T10:56:15;8.30;99.90
1766;DHT22;880;52.452;8.656;2024-02-23T10:58:42;8.30;99.90
1766;DHT22;880;52.452;8.656;2024-02-23T11:01:10;8.30;99.90
1766;DHT22;880;52.452;8.656;2024-02-23T11:03:38;8.30;99.90
1766;DHT22;880;52.452;8.656;2024-02-23T11:06:09;8.30;99.90
1766;DHT22;880;52.452;8.656;2024-02-23T11:08:36;8.30;99.90
1766;DHT22;880;52.452;8.656;2024-02-23T11:11:10;8.30;99.90
1766;DHT22;880;52.452;8.656;2024-02-23T11:13:39;8.40;99.90
1766;DHT22;880;52.452;8.656;2024-02-23T11:16:08;8.40;99.90
1766;DHT22;880;52.452;8.656;2024-02-23T11:18:36;8.40;99.90
1766;DHT22;880;52.452;8.656;2024-02-23T11:21:08;8.50;99.90
1766;DHT22;880;52.452;8.656;2024-02-23T11:23:47;8.50;99.90
1766;DHT22;880;52.452;8.656;2024-02-23T11:26:15;8.50;99.90
1766;DHT22;880;52.452;8.656;2024-02-23T11:28:50;8.50;99.90
1766;DHT22;880;52.452;8.656;2024-02-23T11:31:25;8.60;99.90
1766;DHT22;880;52.452;8.656;2024-02-23T11:33:56;8.70;99.90
1766;DHT22;880;52.452;8.656;2024-02-23T11:36:35;8.80;99.90
1766;DHT22;880;52.452;8.656;2024-02-23T11:39:03;8.90;99.90
1766;DHT22;880;52.452;8.656;2024-02-23T11:41:30;8.90;99.90
1766;DHT22;880;52.452;8.656;2024-02-23T11:43:57;8.90;99.90
1766;DHT22;880;52.452;8.656;2024-02-23T11:46:27;8.90;99.90
1766;DHT22;880;52.452;8.656;2024-02-23T11:48:54;8.90;99.90
1766;DHT22;880;52.452;8.656;2024-02-23T11:51:23;8.90;99.90
1766;DHT22;880;52.452;8.656;2024-02-23T11:53:53;8.90;99.90
1766;DHT22;880;52.452;8.656;2024-02-23T11:56:24;8.80;99.90
1766;DHT22;880;52.452;8.656;2024-02-23T11:58:52;8.80;99.90
1766;DHT22;880;52.452;8.656;2024-02-23T12:01:20;8.70;99.90
1766;DHT22;880;52.452;8.656;2024-02-23T12:03:47;8.60;99.90
1766;DHT22;880;52.452;8.656;2024-02-23T12:06:15;8.60;99.90
1766;DHT22;880;52.452;8.656;2024-02-23T12:08:42;8.70;99.90
1766;DHT22;880;52.452;8.656;2024-02-23T12:11:12;8.70;99.90
1766;DHT22;880;52.452;8.656;2024-02-23T12:13:40;8.80;99.90
1766;DHT22;880;52.452;8.656;2024-02-23T12:16:08;8.80;99.90
1766;DHT22;880;52.452;8.656;2024-02-23T12:18:36;8.80;99.90
1766;DHT22;880;52.452;8.656;2024-02-23T12:21:08;8.80;99.90
1766;DHT22;880;52.452;8.656;2024-02-23T12:23:44;8.80;99.90
1766;DHT22;880;52.452;8.656;2024-02-23T12:26:13;8.70;99.90
1766;DHT22;880;52.452;8.656;2024-02-23T12:28:42;8.80;99.90
1766;DHT22;880;52.452;8.656;2024-02-23T12:31:09;8.80;99.90
1766;DHT22;880;52.452;8.656;2024-02-23T12:33:38;8.90;99.90
1766;DHT22;880;52.452;8.656;2024-02-23T12:36:07;8.90;99.90
1766;DHT22;880;52.452;8.656;2024-02-23T12:38:36;9.00;99.90
1766;DHT22;880;52.452;8.656;2024-02-23T12:41:04;9.00;99.90
1766;DHT22;880;52.452;8.656;2024-02-23T12:43:32;9.10;99.90
1766;DHT22;880;52.452;8.656;2024-02-23T12:45:59;9.20;99.90
1766;DHT22;880;52.452;8.656;2024-02-23T12:48:28;9.20;99.90
1766;DHT22;880;52.452;8.656;2024-02-23T12:50:55;9.20;99.90
1766;DHT22;880;52.452;8.656;2024-02-23T12:53:39;9.30;99.90
1766;DHT22;880;52.452;8.656;2024-02-23T12:56:08;9.50;99.90
1766;DHT22;880;52.452;8.656;2024-02-23T12:58:38;9.70;99.90
1766;DHT22;880;52.452;8.656;2024-02-23T13:01:06;9.80;99.90
1766;DHT22;880;52.452;8.656;2024-02-23T13:03:35;9.90;99.90
1766;DHT22;880;52.452;8.656;2024-02-23T13:06:04;9.90;99.90
1766;DHT22;880;52.452;8.656;2024-02-23T13:08:31;10.00;99.90
1766;DHT22;880;52.452;8.656;2024-02-23T13:10:59;10.10;99.90
1766;DHT22;880;52.452;8.656;2024-02-23T13:13:26;10.20;99.90
1766;DHT22;880;52.452;8.656;2024-02-23T13:15:54;10.40;99.90
1766;DHT22;880;52.452;8.656;2024-02-23T13:18:21;10.50;99.90
1766;DHT22;880;52.452;8.656;2024-02-23T13:20:49;10.50;99.90
1766;DHT22;880;52.452;8.656;2024-02-23T13:23:16;10.40;99.90
1766;DHT22;880;52.452;8.656;2024-02-23T13:25:44;10.30;99.90
1766;DHT22;880;52.452;8.656;2024-02-23T13:28:12;10.30;99.90
1766;DHT22;880;52.452;8.656;2024-02-23T13:30:39;10.30;99.90
1766;DHT22;880;52.452;8.656;2024-02-23T13:33:07;10.50;99.90
1766;DHT22;880;52.452;8.656;2024-02-23T13:35:35;10.50;99.90
1766;DHT22;880;52.452;8.656;2024-02-23T13:38:02;10.40;99.90
1766;DHT22;880;52.452;8.656;2024-02-23T13:40:32;10.20;99.90
1766;DHT22;880;52.452;8.656;2024-02-23T13:42:59;10.20;99.90
1766;DHT22;880;52.452;8.656;2024-02-23T13:45:26;10.00;99.90
1766;DHT22;880;52.452;8.656;2024-02-23T13:48:01;10.00;99.90
1766;DHT22;880;52.452;8.656;2024-02-23T13:50:29;9.90;99.90
1766;DHT22;880;52.452;8.656;2024-02-23T13:52:57;9.80;99.90
1766;DHT22;880;52.452;8.656;2024-02-23T13:55:25;9.70;99.90
1766;DHT22;880;52.452;8.656;2024-02-23T13:57:52;9.80;99.90
1766;DHT22;880;52.452;8.656;2024-02-23T14:00:20;9.80;99.90
1766;DHT22;880;52.452;8.656;2024-02-23T14:02:48;9.70;99.90
1766;DHT22;880;52.452;8.656;2024-02-23T14:05:15;9.70;99.90
1766;DHT22;880;52.452;8.656;2024-02-23T14:07:45;9.70;99.90
1766;DHT22;880;52.452;8.656;2024-02-23T14:10:12;9.70;99.90
1766;DHT22;880;52.452;8.656;2024-02-23T14:12:40;9.70;99.90
1766;DHT22;880;52.452;8.656;2024-02-23T14:15:08;9.70;99.90
1766;DHT22;880;52.452;8.656;2024-02-23T14:17:37;9.70;99.90
1766;DHT22;880;52.452;8.656;2024-02-23T14:20:04;9.80;99.90
1766;DHT22;880;52.452;8.656;2024-02-23T14:22:33;9.70;99.90
1766;DHT22;880;52.452;8.656;2024-02-23T14:25:00;9.60;99.90
1766;DHT22;880;52.452;8.656;2024-02-23T14:27:27;9.60;99.90
1766;DHT22;880;52.452;8.656;2024-02-23T14:29:58;9.50;99.90
1766;DHT22;880;52.452;8.656;2024-02-23T14:32:25;9.20;99.90
1766;DHT22;880;52.452;8.656;2024-02-23T14:34:52;8.90;99.90
1766;DHT22;880;52.452;8.656;2024-02-23T14:37:19;8.70;99.90
1766;DHT22;880;52.452;8.656;2024-02-23T14:39:46;8.50;99.90
1766;DHT22;880;52.452;8.656;2024-02-23T14:42:14;8.50;99.90
1766;DHT22;880;52.452;8.656;2024-02-23T14:44:41;8.40;99.90
1766;DHT22;880;52.452;8.656;2024-02-23T14:47:08;8.40;99.90
1766;DHT22;880;52.452;8.656;2024-02-23T14:49:35;8.40;99.90
1766;DHT22;880;52.452;8.656;2024-02-23T14:52:03;8.50;99.90
1766;DHT22;880;52.452;8.656;2024-02-23T14:54:31;8.60;99.90
1766;DHT22;880;52.452;8.656;2024-02-23T14:56:59;8.60;99.90
1766;DHT22;880;52.452;8.656;2024-02-23T14:59:26;8.60;99.90
1766;DHT22;880;52.452;8.656;2024-02-23T15:01:54;8.80;99.90
1766;DHT22;880;52.452;8.656;2024-02-23T15:04:21;8.90;99.90
1766;DHT22;880;52.452;8.656;2024-02-23T15:06:48;9.00;99.90
1766;DHT22;880;52.452;8.656;2024-02-23T15:09:15;9.10;99.90
1766;DHT22;880;52.452;8.656;2024-02-23T15:11:42;9.10;99.90
1766;DHT22;880;52.452;8.656;2024-02-23T15:14:09;9.10;99.90
1766;DHT22;880;52.452;8.656;2024-02-23T15:16:36;9.10;99.90
1766;DHT22;880;52.452;8.656;2024-02-23T15:19:03;9.10;99.90
1766;DHT22;880;52.452;8.656;2024-02-23T15:21:34;9.20;99.90
1766;DHT22;880;52.452;8.656;2024-02-23T15:24:06;9.20;99.90
1766;DHT22;880;52.452;8.656;2024-02-23T15:26:34;9.20;99.90
1766;DHT22;880;52.452;8.656;2024-02-23T15:29:01;9.20;99.90
1766;DHT22;880;52.452;8.656;2024-02-23T15:31:30;9.20;99.90
1766;DHT22;880;52.452;8.656;2024-02-23T15:33:57;9.10;99.90
1766;DHT22;880;52.452;8.656;2024-02-23T15:36:25;9.10;99.90
1766;DHT22;880;52.452;8.656;2024-02-23T15:38:53;9.20;99.90
1766;DHT22;880;52.452;8.656;2024-02-23T15:41:32;9.20;99.90
1766;DHT22;880;52.452;8.656;2024-02-23T15:44:01;9.30;99.90
1766;DHT22;880;52.452;8.656;2024-02-23T15:46:29;9.30;99.90
1766;DHT22;880;52.452;8.656;2024-02-23T15:48:57;9.30;99.90
1766;DHT22;880;52.452;8.656;2024-02-23T15:51:25;9.30;99.90
1766;DHT22;880;52.452;8.656;2024-02-23T15:54:12;9.20;99.90
1766;DHT22;880;52.452;8.656;2024-02-23T15:56:39;9.30;99.90
1766;DHT22;880;52.452;8.656;2024-02-23T15:59:07;9.30;99.90
1766;DHT22;880;52.452;8.656;2024-02-23T16:01:35;9.30;99.90
1766;DHT22;880;52.452;8.656;2024-02-23T16:04:04;9.20;99.90
1766;DHT22;880;52.452;8.656;2024-02-23T16:06:31;9.00;99.90
1766;DHT22;880;52.452;8.656;2024-02-23T16:09:03;8.90;99.90
1766;DHT22;880;52.452;8.656;2024-02-23T16:11:34;8.80;99.90
1766;DHT22;880;52.452;8.656;2024-02-23T16:14:03;8.70;99.90
1766;DHT22;880;52.452;8.656;2024-02-23T16:16:31;8.60;99.90
1766;DHT22;880;52.452;8.656;2024-02-23T16:18:58;8.60;99.90
1766;DHT22;880;52.452;8.656;2024-02-23T16:21:26;8.50;99.90
1766;DHT22;880;52.452;8.656;2024-02-23T16:23:52;8.50;99.90
1766;DHT22;880;52.452;8.656;2024-02-23T16:26:20;8.40;99.90
1766;DHT22;880;52.452;8.656;2024-02-23T16:28:47;8.40;99.90
1766;DHT22;880;52.452;8.656;2024-02-23T16:31:14;8.30;99.90
1766;DHT22;880;52.452;8.656;2024-02-23T16:33:41;8.40;99.90
1766;DHT22;880;52.452;8.656;2024-02-23T16:36:08;8.30;99.90
1766;DHT22;880;52.452;8.656;2024-02-23T16:38:35;8.30;99.90